Time;durP1;ratioP1;P1;durP2;ratioP2;P2;SDS_P1;SDS_P2;PMS_P1;PMS_P2;Temp;Humidity;BMP_temperature;BMP_pressure;BME280_temperature;BME280_humidity;BME280_pressure;Samples;Min_cycle;Max_cycle;Signal;HPM_P1;HPM_P2
2023/05/27 00:00:30;;;;;;;16.87;2.57;;;13.90;99.90;;;;;;5058637;28;20436;-63
2023/05/27 00:03:01;;;;;;;17.30;3.17;;;;;;;;;;5058728;28;20464;-60
2023/05/27 00:05:28;;;;;;;4.57;2.50;;;;;;;;;;5059512;28;20439;-64
2023/05/27 00:07:56;;;;;;;6.37;3.00;;;13.90;99.90;;;;;;5059748;28;20468;-62
2023/05/27 00:10:23;;;;;;;6.00;3.27;;;;;;;;;;5059223;28;20555;-62
2023/05/27 00:12:51;;;;;;;6.73;2.87;;;;;;;;;;5059637;28;20456;-62
2023/05/27 00:15:19;;;;;;;6.73;2.80;;;13.70;99.90;;;;;;5058258;28;20463;-65
2023/05/27 00:17:47;;;;;;;3.73;2.10;;;;;;;;;;5058090;28;20467;-64
2023/05/27 00:20:14;;;;;;;7.40;2.80;;;;;;;;;;5060066;28;20452;-61
2023/05/27 00:22:42;;;;;;;12.80;3.60;;;;;;;;;;5059457;28;20476;-57
2023/05/27 00:25:11;;;;;;;17.33;3.13;;;13.50;99.90;;;;;;5059575;28;20459;-62
2023/05/27 00:27:40;;;;;;;6.53;3.10;;;13.60;99.90;;;;;;5057763;28;20471;-58
2023/05/27 00:30:12;;;;;;;6.67;4.07;;;13.40;99.90;;;;;;5059699;28;20409;-58
2023/05/27 00:32:39;;;;;;;7.93;2.90;;;;;;;;;;5059788;28;20457;-63
2023/05/27 00:35:07;;;;;;;8.00;3.03;;;13.70;99.90;;;;;;5059326;28;20460;-61
2023/05/27 00:37:34;;;;;;;9.00;2.60;;;;;;;;;;5059633;28;20475;-61
2023/05/27 00:40:03;;;;;;;4.17;2.43;;;;;;;;;;5058750;28;20463;-62
2023/05/27 00:42:35;;;;;;;5.93;2.47;;;13.40;99.90;;;;;;5057730;28;20424;-59
2023/05/27 00:45:02;;;;;;;10.87;3.30;;;;;;;;;;5055664;28;20429;-63
2023/05/27 00:47:32;;;;;;;6.13;2.60;;;13.40;99.90;;;;;;5056116;28;20520;-60
2023/05/27 00:49:59;;;;;;;7.20;3.40;;;;;;;;;;5058640;28;20424;-61
2023/05/27 00:52:28;;;;;;;9.80;3.47;;;14.50;99.90;;;;;;5058359;28;20498;-58
2023/05/27 00:54:56;;;;;;;9.33;2.97;;;;;;;;;;5058554;28;20448;-57
2023/05/27 00:57:23;;;;;;;12.70;3.17;;;;;;;;;;5058482;28;20492;-61
2023/05/27 00:59:52;;;;;;;10.90;2.87;;;13.30;99.90;;;;;;5057346;28;20558;-62
2023/05/27 01:02:20;;;;;;;9.30;3.57;;;;;;;;;;5058476;28;20444;-62
2023/05/27 01:04:48;;;;;;;4.13;2.57;;;13.20;99.90;;;;;;5057683;28;20464;-62
2023/05/27 01:07:19;;;;;;;11.03;2.80;;;13.00;99.90;;;;;;5057806;28;20429;-60
2023/05/27 01:09:52;;;;;;;6.40;3.90;;;;;;;;;;5056937;28;20470;-63
2023/05/27 01:12:23;;;;;;;8.10;2.30;;;;;;;;;;5057936;28;20560;-63
2023/05/27 01:14:55;;;;;;;5.70;3.00;;;13.20;99.90;;;;;;5057695;28;20488;-59
2023/05/27 01:17:26;;;;;;;6.23;2.87;;;13.10;99.90;;;;;;5056797;28;20442;-61
2023/05/27 01:19:59;;;;;;;10.63;3.13;;;13.10;99.90;;;;;;5057112;28;20460;-64
2023/05/27 01:22:29;;;;;;;3.40;2.60;;;13.00;99.90;;;;;;5054692;28;20452;-59
2023/05/27 01:24:57;;;;;;;11.33;2.80;;;;;;;;;;5056390;28;20499;-60
2023/05/27 01:27:26;;;;;;;12.00;2.27;;;;;;;;;;5057799;28;20451;-59
2023/05/27 01:29:54;;;;;;;9.17;2.90;;;;;;;;;;5057357;28;20467;-59
2023/05/27 01:32:30;;;;;;;7.17;2.90;;;13.00;99.90;;;;;;5057825;28;20491;-62
2023/05/27 01:35:07;;;;;;;5.27;4.17;;;13.00;99.90;;;;;;5056432;28;20459;-62
2023/05/27 01:37:39;;;;;;;10.63;2.97;;;12.90;99.90;;;;;;5057911;28;20439;-62
2023/05/27 01:40:08;;;;;;;10.87;3.30;;;12.70;99.90;;;;;;5057683;28;20464;-59
2023/05/27 01:42:36;;;;;;;8.00;2.60;;;12.90;99.90;;;;;;5057135;28;20452;-62
2023/05/27 01:45:05;;;;;;;7.37;2.47;;;12.90;99.90;;;;;;5056616;28;20472;-58
2023/05/27 01:47:32;;;;;;;6.50;3.50;;;;;;;;;;5057136;28;20440;-61
2023/05/27 01:50:00;;;;;;;5.93;2.93;;;;;;;;;;5057469;28;20463;-62
2023/05/27 01:52:28;;;;;;;9.03;3.03;;;12.60;99.90;;;;;;5056843;28;20510;-58
2023/05/27 01:54:57;;;;;;;5.13;3.07;;;;;;;;;;5056789;28;20480;-65
2023/05/27 01:57:26;;;;;;;6.20;3.50;;;12.70;99.90;;;;;;5057578;28;20455;-61
2023/05/27 01:59:53;;;;;;;6.00;2.77;;;;;;;;;;5056782;28;20475;-63
2023/05/27 02:02:20;;;;;;;9.83;3.40;;;;;;;;;;5056755;28;20424;-59
2023/05/27 02:04:47;;;;;;;11.40;2.70;;;;;;;;;;5057140;28;20438;-54
2023/05/27 02:07:16;;;;;;;14.43;3.20;;;;;;;;;;5057760;28;20421;-63
2023/05/27 02:09:44;;;;;;;9.93;3.00;;;;;;;;;;5056775;28;20527;-60
2023/05/27 02:12:13;;;;;;;6.93;2.30;;;12.40;99.90;;;;;;5057242;28;20474;-62
2023/05/27 02:14:40;;;;;;;5.90;2.60;;;;;;;;;;5057373;28;20428;-62
2023/05/27 02:17:09;;;;;;;11.00;2.70;;;;;;;;;;5057334;28;20472;-59
2023/05/27 02:19:39;;;;;;;8.73;2.87;;;;;;;;;;5057158;28;20467;-58
2023/05/27 02:22:06;;;;;;;12.90;2.90;;;;;;;;;;5042464;28;20905;-63
2023/05/27 02:24:36;;;;;;;11.43;2.90;;;;;;;;;;5056391;28;20447;-62
2023/05/27 02:27:03;;;;;;;6.90;2.57;;;;;;;;;;5055408;28;20460;-62
2023/05/27 02:29:32;;;;;;;3.30;2.37;;;;;;;;;;5055539;28;20435;-60
2023/05/27 02:31:59;;;;;;;8.10;2.73;;;;;;;;;;5056060;28;20503;-63
2023/05/27 02:34:26;;;;;;;4.03;3.00;;;;;;;;;;5054310;28;20479;-62
2023/05/27 02:36:54;;;;;;;5.50;3.43;;;;;;;;;;5053710;28;20451;-64
2023/05/27 02:39:21;;;;;;;9.43;2.90;;;;;;;;;;5053266;28;20477;-64
2023/05/27 02:41:48;;;;;;;5.00;3.50;;;;;;;;;;5055440;28;20499;-63
2023/05/27 02:44:17;;;;;;;7.30;2.70;;;12.30;99.90;;;;;;5055042;28;20436;-61
2023/05/27 02:46:45;;;;;;;7.90;2.80;;;12.20;99.90;;;;;;5054235;28;20467;-59
2023/05/27 02:49:12;;;;;;;13.77;2.90;;;;;;;;;;5053736;28;20480;-59
2023/05/27 02:51:39;;;;;;;9.67;3.97;;;;;;;;;;5055183;28;20483;-62
2023/05/27 02:54:06;;;;;;;17.50;2.83;;;;;;;;;;5055689;28;20444;-62
2023/05/27 02:56:34;;;;;;;9.00;2.70;;;;;;;;;;5056164;28;20499;-61
2023/05/27 02:59:01;;;;;;;6.00;2.30;;;;;;;;;;5054897;28;20468;-63
2023/05/27 03:01:28;;;;;;;15.63;3.63;;;;;;;;;;5054683;28;20475;-60
2023/05/27 03:03:56;;;;;;;8.70;3.90;;;12.30;99.90;;;;;;5055591;28;20457;-62
2023/05/27 03:06:23;;;;;;;9.77;3.30;;;;;;;;;;5060459;28;20468;-63
2023/05/27 03:08:51;;;;;;;6.60;2.83;;;12.40;99.90;;;;;;5061951;28;20444;-60
2023/05/27 03:11:21;;;;;;;7.30;2.63;;;12.20;99.90;;;;;;5062385;28;20444;-56
2023/05/27 03:13:48;;;;;;;6.80;2.60;;;;;;;;;;5062970;28;20444;-58
2023/05/27 03:16:15;;;;;;;5.80;2.90;;;;;;;;;;5056239;28;20452;-63
2023/05/27 03:18:42;;;;;;;10.30;3.20;;;;;;;;;;5056804;28;20452;-63
2023/05/27 03:21:10;;;;;;;9.43;2.80;;;12.20;99.90;;;;;;5060110;28;20440;-63
2023/05/27 03:23:37;;;;;;;6.97;3.50;;;;;;;;;;5058716;28;20468;-62
2023/05/27 03:26:06;;;;;;;3.67;2.37;;;;;;;;;;5061581;28;20439;-57
2023/05/27 03:28:33;;;;;;;10.87;3.27;;;;;;;;;;5060728;28;20468;-64
2023/05/27 03:31:00;;;;;;;9.83;3.50;;;;;;;;;;5061663;28;20466;-64
2023/05/27 03:33:29;;;;;;;11.03;5.03;;;;;;;;;;5060913;28;20487;-61
2023/05/27 03:35:56;;;;;;;6.80;2.70;;;;;;;;;;5062321;28;20440;-63
2023/05/27 03:38:25;;;;;;;9.73;3.50;;;12.20;99.90;;;;;;5061902;28;20432;-64
2023/05/27 03:40:52;;;;;;;10.73;3.17;;;;;;;;;;5062140;28;20798;-63
2023/05/27 03:43:19;;;;;;;9.77;2.77;;;;;;;;;;5062103;28;20464;-62
2023/05/27 03:45:46;;;;;;;8.90;2.97;;;;;;;;;;5061920;28;20439;-61
2023/05/27 03:48:14;;;;;;;8.30;3.40;;;;;;;;;;5061183;28;20484;-64
2023/05/27 03:50:41;;;;;;;9.50;2.70;;;12.20;99.90;;;;;;5061611;28;20440;-62
2023/05/27 03:53:08;;;;;;;9.00;4.00;;;;;;;;;;5060778;28;20487;-61
2023/05/27 03:55:40;;;;;;;13.53;2.57;;;12.20;99.90;;;;;;5060708;28;20444;-62
2023/05/27 03:58:07;;;;;;;10.03;4.23;;;;;;;;;;5062479;28;20475;-62
2023/05/27 04:00:35;;;;;;;12.40;3.73;;;;;;;;;;5061860;28;20444;-60
2023/05/27 04:03:02;;;;;;;7.10;3.17;;;;;;;;;;5061937;28;20469;-61
2023/05/27 04:05:29;;;;;;;8.77;3.33;;;;;;;;;;5062216;28;20428;-61
2023/05/27 04:07:57;;;;;;;10.00;3.70;;;;;;;;;;5062037;28;20491;-63
2023/05/27 04:10:24;;;;;;;8.83;2.63;;;;;;;;;;5061900;28;20497;-60
2023/05/27 04:12:52;;;;;;;9.97;3.93;;;;;;;;;;5061111;28;20495;-66
2023/05/27 04:15:20;;;;;;;5.23;2.47;;;;;;;;;;5058001;28;20448;-57
2023/05/27 04:17:47;;;;;;;6.60;2.60;;;;;;;;;;5058324;28;20472;-61
2023/05/27 04:20:14;;;;;;;12.97;4.03;;;;;;;;;;5058408;28;20416;-58
2023/05/27 04:22:43;;;;;;;6.27;2.57;;;;;;;;;;5058618;28;20450;-63
2023/05/27 04:25:10;;;;;;;11.60;3.70;;;;;;;;;;5058638;28;20444;-64
2023/05/27 04:27:37;;;;;;;11.20;3.60;;;;;;;;;;5058424;28;20460;-62
2023/05/27 04:30:07;;;;;;;9.53;3.07;;;;;;;;;;5058259;28;20424;-61
2023/05/27 04:32:37;;;;;;;4.60;3.60;;;;;;;;;;5058295;28;20490;-60
2023/05/27 04:35:07;;;;;;;16.60;4.07;;;12.50;99.90;;;;;;5057419;28;20449;-61
2023/05/27 04:37:36;;;;;;;8.97;3.40;;;;;;;;;;5057838;28;20430;-63
2023/05/27 04:40:03;;;;;;;21.50;4.03;;;;;;;;;;5056898;28;20448;-63
2023/05/27 04:42:32;;;;;;;12.57;4.00;;;;;;;;;;5056311;28;20456;-63
2023/05/27 04:45:06;;;;;;;6.87;2.50;;;12.70;99.90;;;;;;5057423;28;20452;-61
2023/05/27 04:47:36;;;;;;;7.93;3.33;;;;;;;;;;5058459;28;20479;-60
2023/05/27 04:50:04;;;;;;;10.90;2.40;;;;;;;;;;5057678;28;20466;-62
2023/05/27 04:52:36;;;;;;;13.83;2.83;;;;;;;;;;5058094;28;20468;-63
2023/05/27 04:55:05;;;;;;;9.13;3.50;;;12.70;99.90;;;;;;5056390;28;20496;-57
2023/05/27 04:57:33;;;;;;;6.70;3.73;;;;;;;;;;5058343;28;20527;-52
2023/05/27 05:00:18;;;;;;;3.43;2.10;;;;;;;;;;5058486;28;20491;-59
2023/05/27 05:03:00;;;;;;;4.33;2.07;;;12.80;99.90;;;;;;5058134;28;20473;-59
2023/05/27 05:05:27;;;;;;;11.13;3.50;;;;;;;;;;5056564;28;20472;-61
2023/05/27 05:07:55;;;;;;;10.50;3.30;;;;;;;;;;5057638;28;20462;-63
2023/05/27 05:10:22;;;;;;;5.60;3.00;;;;;;;;;;5057943;28;20963;-57
2023/05/27 05:12:50;;;;;;;12.30;3.43;;;;;;;;;;5057744;28;20530;-63
2023/05/27 05:15:17;;;;;;;6.90;3.13;;;;;;;;;;5055553;28;20486;-61
2023/05/27 05:17:44;;;;;;;5.73;3.70;;;;;;;;;;5055528;28;20432;-61
2023/05/27 05:20:16;;;;;;;9.37;4.43;;;;;;;;;;5058033;28;20476;-60
2023/05/27 05:22:43;;;;;;;4.93;2.87;;;;;;;;;;5050348;28;20472;-59
2023/05/27 05:25:12;;;;;;;14.43;2.73;;;13.40;99.90;;;;;;5038128;28;20461;-62
2023/05/27 05:27:43;;;;;;;6.03;3.33;;;13.40;99.90;;;;;;5038025;28;20421;-60
2023/05/27 05:30:10;;;;;;;7.53;3.13;;;;;;;;;;5037237;28;20460;-55
2023/05/27 05:32:37;;;;;;;9.73;3.20;;;;;;;;;;5037728;28;20503;-62
2023/05/27 05:35:05;;;;;;;7.43;3.03;;;13.50;99.90;;;;;;5037595;28;20481;-60
2023/05/27 05:37:34;;;;;;;9.83;2.57;;;13.60;99.90;;;;;;5037875;28;20517;-62
2023/05/27 05:40:12;;;;;;;3.20;1.70;;;;;;;;;;5036654;28;20548;-64
2023/05/27 05:42:39;;;;;;;14.53;3.27;;;;;;;;;;5035997;28;20441;-57
2023/05/27 05:45:09;;;;;;;9.30;3.03;;;;;;;;;;5036590;28;20480;-63
2023/05/27 05:47:36;;;;;;;6.50;2.37;;;;;;;;;;5037672;28;20504;-59
2023/05/27 05:50:04;;;;;;;5.00;2.40;;;;;;;;;;5037376;28;20464;-62
2023/05/27 05:52:31;;;;;;;9.03;4.13;;;;;;;;;;5043110;28;20511;-59
2023/05/27 05:55:00;;;;;;;5.30;2.40;;;;;;;;;;5056475;28;20494;-62
2023/05/27 05:57:31;;;;;;;3.60;2.07;;;;;;;;;;5055903;28;20866;-64
2023/05/27 05:59:58;;;;;;;9.67;2.27;;;;;;;;;;5057120;28;20424;-55
2023/05/27 06:02:25;;;;;;;5.70;1.87;;;;;;;;;;5051867;28;20455;-59
2023/05/27 06:04:53;;;;;;;9.10;2.30;;;;;;;;;;5057056;28;20459;-59
2023/05/27 06:07:20;;;;;;;10.50;2.57;;;;;;;;;;5057018;28;20451;-60
2023/05/27 06:09:47;;;;;;;8.47;3.30;;;;;;;;;;5057291;28;20456;-63
2023/05/27 06:12:15;;;;;;;3.67;1.60;;;14.60;99.90;;;;;;5057431;28;20472;-63
2023/05/27 06:14:42;;;;;;;2.50;1.40;;;;;;;;;;5057069;28;20416;-58
2023/05/27 06:17:11;;;;;;;5.30;1.80;;;14.70;99.90;;;;;;5056511;28;20468;-60
2023/05/27 06:19:38;;;;;;;4.30;1.27;;;;;;;;;;5056978;28;20478;-59
2023/05/27 06:22:06;;;;;;;5.30;1.93;;;;;;;;;;5054463;28;20460;-64
2023/05/27 06:24:33;;;;;;;4.53;2.07;;;;;;;;;;5055998;28;20441;-62
2023/05/27 06:27:00;;;;;;;4.30;1.63;;;;;;;;;;5050997;28;20494;-59
2023/05/27 06:29:29;;;;;;;2.20;1.67;;;;;;;;;;5056970;28;20612;-61
2023/05/27 06:31:56;;;;;;;2.03;1.20;;;;;;;;;;5055096;28;20468;-63
2023/05/27 06:34:23;;;;;;;3.13;1.27;;;;;;;;;;5055228;28;20489;-61
2023/05/27 06:36:52;;;;;;;3.77;1.30;;;;;;;;;;5054015;28;20476;-62
2023/05/27 06:39:19;;;;;;;5.80;1.90;;;;;;;;;;5053853;28;20512;-60
2023/05/27 06:41:47;;;;;;;2.57;1.30;;;;;;;;;;5056036;28;20471;-61
2023/05/27 06:44:14;;;;;;;1.47;1.20;;;;;;;;;;5056141;28;20463;-61
2023/05/27 06:46:43;;;;;;;3.30;1.60;;;15.60;99.90;;;;;;5056144;28;20494;-59
2023/05/27 06:49:10;;;;;;;2.60;1.20;;;;;;;;;;5056187;28;20436;-58
2023/05/27 06:51:41;;;;;;;5.30;3.27;;;;;;;;;;5055537;28;20483;-61
2023/05/27 06:54:08;;;;;;;8.63;1.97;;;;;;;;;;5053651;28;20503;-61
2023/05/27 06:56:35;;;;;;;2.50;1.47;;;;;;;;;;5055970;28;20488;-59
2023/05/27 06:59:02;;;;;;;4.80;1.20;;;;;;;;;;5055074;28;20452;-60
2023/05/27 07:01:31;;;;;;;3.50;1.30;;;;;;;;;;5056199;28;20461;-61
2023/05/27 07:03:59;;;;;;;2.37;1.20;;;16.20;99.90;;;;;;5056495;28;20485;-60
2023/05/27 07:06:26;;;;;;;6.07;1.93;;;;;;;;;;5055302;28;20448;-59
2023/05/27 07:08:53;;;;;;;3.70;1.07;;;;;;;;;;5055375;28;20448;-61
2023/05/27 07:11:21;;;;;;;3.20;1.30;;;;;;;;;;5054930;28;20439;-60
2023/05/27 07:13:48;;;;;;;3.43;1.30;;;;;;;;;;5051023;28;20480;-64
2023/05/27 07:16:15;;;;;;;1.90;1.10;;;;;;;;;;5051702;28;20456;-62
2023/05/27 07:18:44;;;;;;;4.10;1.00;;;20.20;97.60;;;;;;5054279;28;20451;-61
2023/05/27 07:21:12;;;;;;;3.00;1.10;;;22.00;90.00;;;;;;5056120;28;20456;-54
2023/05/27 07:23:40;;;;;;;3.57;1.33;;;;;;;;;;5049559;28;20528;-64
2023/05/27 07:26:09;;;;;;;1.67;1.20;;;;;;;;;;5050026;28;20491;-64
2023/05/27 07:28:37;;;;;;;3.70;1.40;;;;;;;;;;5038880;28;20915;-64
2023/05/27 07:31:04;;;;;;;2.57;1.50;;;;;;;;;;5041520;28;20959;-63
2023/05/27 07:33:31;;;;;;;1.83;1.40;;;;;;;;;;5041545;28;20506;-64
2023/05/27 07:35:59;;;;;;;3.87;1.53;;;;;;;;;;5047856;28;20443;-63
2023/05/27 07:38:27;;;;;;;2.10;1.40;;;30.80;46.60;;;;;;5052196;28;20468;-65
2023/05/27 07:40:54;;;;;;;1.93;1.37;;;;;;;;;;5048846;28;20452;-67
2023/05/27 07:43:21;;;;;;;2.57;1.83;;;;;;;;;;5045276;28;20484;-64
2023/05/27 07:45:48;;;;;;;1.50;1.20;;;;;;;;;;5050701;28;20444;-65
2023/05/27 07:48:17;;;;;;;1.90;1.63;;;;;;;;;;5047528;28;20464;-62
2023/05/27 07:50:44;;;;;;;2.83;2.10;;;;;;;;;;5050998;28;20452;-64
2023/05/27 07:53:13;;;;;;;2.07;1.33;;;31.90;41.90;;;;;;5055864;28;20486;-63
2023/05/27 07:55:43;;;;;;;2.00;1.20;;;32.00;41.00;;;;;;5056116;28;20479;-65
2023/05/27 07:58:10;;;;;;;1.70;1.07;;;;;;;;;;5052979;28;20476;-63
2023/05/27 08:00:38;;;;;;;3.83;1.87;;;;;;;;;;5044933;28;20949;-63
2023/05/27 08:03:05;;;;;;;2.77;1.37;;;;;;;;;;5045672;28;21008;-65
2023/05/27 08:05:35;;;;;;;2.47;1.30;;;;;;;;;;5054190;28;20428;-64
2023/05/27 08:08:02;;;;;;;1.90;1.53;;;;;;;;;;5054899;28;20444;-64
2023/05/27 08:10:29;;;;;;;1.63;1.07;;;;;;;;;;5052494;28;20439;-64
2023/05/27 08:12:57;;;;;;;3.93;1.60;;;31.90;40.30;;;;;;5054163;28;20460;-63
2023/05/27 08:15:25;;;;;;;1.47;1.07;;;;;;;;;;5053860;28;20480;-63
2023/05/27 08:17:52;;;;;;;2.03;1.50;;;;;;;;;;5054376;28;20440;-64
2023/05/27 08:20:19;;;;;;;1.33;0.93;;;;;;;;;;5043648;28;20495;-66
2023/05/27 08:22:46;;;;;;;3.27;1.27;;;;;;;;;;5042727;28;20535;-62
2023/05/27 08:25:14;;;;;;;4.13;1.40;;;;;;;;;;5049728;28;20436;-64
2023/05/27 08:27:45;;;;;;;2.03;1.33;;;31.40;33.40;;;;;;5054464;28;20459;-62
2023/05/27 08:30:14;;;;;;;1.40;1.10;;;31.30;39.60;;;;;;5050370;28;20440;-63
2023/05/27 08:32:41;;;;;;;1.90;1.43;;;;;;;;;;5050602;28;20502;-63
2023/05/27 08:35:09;;;;;;;4.17;1.60;;;;;;;;;;5053530;28;20446;-65
2023/05/27 08:37:36;;;;;;;2.10;1.27;;;;;;;;;;5054475;28;20440;-63
2023/05/27 08:40:05;;;;;;;5.43;1.77;;;;;;;;;;5055095;28;20499;-65
2023/05/27 08:42:32;;;;;;;3.00;1.30;;;;;;;;;;5053819;28;20448;-61
2023/05/27 08:45:00;;;;;;;1.53;1.00;;;31.20;37.00;;;;;;5046885;28;20527;-64
2023/05/27 08:47:29;;;;;;;1.43;1.13;;;31.30;38.10;;;;;;5050370;28;20451;-61
2023/05/27 08:49:58;;;;;;;3.10;1.33;;;;;;;;;;5053985;28;20468;-61
2023/05/27 08:52:27;;;;;;;4.83;1.30;;;31.20;36.80;;;;;;5048769;28;20959;-62
2023/05/27 08:54:55;;;;;;;1.90;1.20;;;;;;;;;;5051037;28;20492;-65
2023/05/27 08:57:26;;;;;;;5.10;1.23;;;31.10;38.00;;;;;;5049547;28;20488;-62
2023/05/27 08:59:53;;;;;;;1.67;1.17;;;;;;;;;;5050851;28;20483;-64
2023/05/27 09:02:23;;;;;;;1.70;1.03;;;31.20;38.30;;;;;;5048778;28;20451;-65
2023/05/27 09:04:51;;;;;;;2.17;1.20;;;31.20;38.10;;;;;;5049012;28;20549;-64
2023/05/27 09:07:21;;;;;;;1.40;1.10;;;;;;;;;;5051276;28;20440;-63
2023/05/27 09:09:56;;;;;;;2.80;1.10;;;31.00;37.90;;;;;;5045330;28;20475;-62
2023/05/27 09:12:24;;;;;;;1.57;1.30;;;;;;;;;;5044418;28;20450;-65
2023/05/27 09:14:51;;;;;;;1.90;1.10;;;;;;;;;;5052591;28;21002;-63
2023/05/27 09:17:19;;;;;;;2.90;1.43;;;;;;;;;;5043745;28;20456;-64
2023/05/27 09:19:46;;;;;;;1.87;1.30;;;;;;;;;;5043688;28;21211;-63
2023/05/27 09:22:22;;;;;;;1.77;1.10;;;31.50;38.40;;;;;;5042176;28;20421;-65
2023/05/27 09:24:49;;;;;;;1.30;1.00;;;;;;;;;;5045562;28;20464;-63
2023/05/27 09:27:16;;;;;;;1.23;0.90;;;;;;;;;;5043536;28;20428;-64
2023/05/27 09:29:44;;;;;;;1.90;0.97;;;;;;;;;;5044453;28;20525;-63
2023/05/27 09:32:11;;;;;;;5.03;1.80;;;;;;;;;;5054059;28;20478;-64
2023/05/27 09:34:41;;;;;;;1.93;1.30;;;;;;;;;;5053011;28;20456;-61
2023/05/27 09:37:14;;;;;;;1.43;1.20;;;31.70;38.00;;;;;;5052075;28;20479;-62
2023/05/27 09:39:43;;;;;;;2.13;1.10;;;;;;;;;;5053026;28;20435;-62
2023/05/27 09:42:10;;;;;;;1.53;1.03;;;;;;;;;;5045476;28;20464;-65
2023/05/27 09:44:40;;;;;;;2.00;1.40;;;;;;;;;;5051714;28;20510;-62
2023/05/27 09:47:09;;;;;;;1.77;1.20;;;31.40;37.50;;;;;;5045637;28;20571;-61
2023/05/27 09:49:38;;;;;;;1.77;1.43;;;30.80;37.70;;;;;;5046186;28;20466;-64
2023/05/27 09:52:07;;;;;;;1.50;1.20;;;30.70;38.80;;;;;;5053606;28;20498;-61
2023/05/27 09:54:37;;;;;;;2.20;1.33;;;30.70;38.20;;;;;;5053622;28;20515;-64
2023/05/27 09:57:07;;;;;;;3.80;1.80;;;30.90;37.20;;;;;;5051344;28;20457;-62
2023/05/27 09:59:35;;;;;;;1.37;1.27;;;;;;;;;;5053971;28;20460;-63
2023/05/27 10:02:03;;;;;;;3.30;2.00;;;;;;;;;;5048929;28;20480;-61
2023/05/27 10:04:30;;;;;;;2.73;1.80;;;;;;;;;;5048302;28;20482;-66
2023/05/27 10:06:58;;;;;;;1.93;1.60;;;;;;;;;;5053461;28;20468;-63
2023/05/27 10:09:26;;;;;;;2.37;1.63;;;;;;;;;;5050670;28;20458;-65
2023/05/27 10:11:54;;;;;;;3.40;1.80;;;;;;;;;;5054733;28;20468;-64
2023/05/27 10:14:22;;;;;;;1.70;1.20;;;30.10;38.80;;;;;;5053545;28;20440;-65
2023/05/27 10:16:54;;;;;;;2.93;1.67;;;29.70;36.50;;;;;;5048008;28;20476;-65
2023/05/27 10:19:21;;;;;;;1.60;1.10;;;;;;;;;;5047528;28;20881;-64
2023/05/27 10:21:48;;;;;;;1.60;1.37;;;;;;;;;;5053546;28;20464;-63
2023/05/27 10:24:16;;;;;;;4.60;1.67;;;;;;;;;;5054393;28;20488;-64
2023/05/27 10:26:45;;;;;;;2.30;1.90;;;29.90;39.60;;;;;;5054209;28;20543;-63
2023/05/27 10:29:13;;;;;;;3.20;2.43;;;29.70;37.30;;;;;;5051941;28;20520;-62
2023/05/27 10:31:46;;;;;;;5.97;1.80;;;;;;;;;;5053840;28;20495;-64
2023/05/27 10:34:14;;;;;;;2.50;1.63;;;;;;;;;;5054004;28;20453;-63
2023/05/27 10:36:41;;;;;;;8.90;5.33;;;;;;;;;;5053806;28;20460;-66
2023/05/27 10:39:15;;;;;;;3.97;1.67;;;28.60;41.70;;;;;;5054012;28;20478;-64
2023/05/27 10:41:51;;;;;;;3.03;1.93;;;28.40;42.20;;;;;;5052086;28;20470;-63
2023/05/27 10:44:27;;;;;;;1.83;1.50;;;;;;;;;;5049934;28;20467;-62
2023/05/27 10:47:02;;;;;;;2.60;1.63;;;27.50;42.90;;;;;;5051864;28;20563;-63
2023/05/27 10:49:35;;;;;;;3.27;1.67;;;;;;;;;;5052548;28;20427;-63
2023/05/27 10:52:10;;;;;;;2.97;1.40;;;27.10;44.30;;;;;;5052789;28;20479;-58
2023/05/27 10:54:37;;;;;;;2.50;1.83;;;;;;;;;;5028855;28;20445;-66
2023/05/27 10:57:05;;;;;;;2.07;1.13;;;;;;;;;;5027932;28;20575;-61
2023/05/27 10:59:41;;;;;;;3.40;1.60;;;27.10;44.80;;;;;;5028977;28;20428;-62
2023/05/27 11:02:09;;;;;;;3.30;1.40;;;26.70;44.60;;;;;;5033476;28;20484;-63
2023/05/27 11:04:37;;;;;;;4.97;1.53;;;;;;;;;;5032516;28;20461;-66
2023/05/27 11:07:05;;;;;;;2.30;1.53;;;26.80;45.40;;;;;;5032145;28;20457;-61
2023/05/27 11:09:32;;;;;;;2.47;1.67;;;;;;;;;;5033094;28;20436;-62
2023/05/27 11:12:03;;;;;;;1.30;1.10;;;;;;;;;;5033696;28;20481;-62
2023/05/27 11:14:30;;;;;;;1.60;1.20;;;;;;;;;;5033597;28;20501;-59
2023/05/27 11:16:57;;;;;;;1.63;1.10;;;;;;;;;;5033316;28;20475;-59
2023/05/27 11:19:26;;;;;;;3.10;1.43;;;;;;;;;;5028621;28;20461;-64
2023/05/27 11:21:53;;;;;;;1.67;1.43;;;;;;;;;;5034114;28;20460;-64
2023/05/27 11:24:21;;;;;;;1.50;1.23;;;25.50;45.20;;;;;;5051594;28;20820;-62
2023/05/27 11:26:49;;;;;;;1.80;1.53;;;25.60;44.40;;;;;;5055762;28;20444;-62
2023/05/27 11:29:16;;;;;;;1.70;1.30;;;;;;;;;;5057553;28;20468;-62
2023/05/27 11:31:48;;;;;;;1.60;1.23;;;25.60;46.90;;;;;;5055033;28;20448;-64
2023/05/27 11:34:15;;;;;;;2.87;1.53;;;;;;;;;;5056071;28;20498;-65
2023/05/27 11:36:46;;;;;;;1.77;1.40;;;25.40;47.10;;;;;;5057703;28;20435;-65
2023/05/27 11:39:16;;;;;;;2.37;1.60;;;25.40;44.90;;;;;;5055530;28;20462;-64
2023/05/27 11:41:50;;;;;;;2.23;1.60;;;25.10;47.30;;;;;;5057926;28;20480;-62
2023/05/27 11:44:17;;;;;;;2.07;1.67;;;;;;;;;;5057002;28;20480;-63
2023/05/27 11:46:47;;;;;;;3.17;1.80;;;25.10;44.80;;;;;;5056233;28;20515;-66
2023/05/27 11:49:15;;;;;;;5.43;1.77;;;;;;;;;;5056674;28;20503;-64
2023/05/27 11:51:44;;;;;;;5.53;2.57;;;25.00;46.10;;;;;;5056475;28;20463;-64
2023/05/27 11:54:19;;;;;;;3.53;1.53;;;24.80;46.40;;;;;;5052112;28;20487;-66
2023/05/27 11:56:47;;;;;;;2.20;1.67;;;;;;;;;;5048027;28;20436;-66
2023/05/27 11:59:14;;;;;;;3.80;2.50;;;;;;;;;;5048220;28;20994;-63
2023/05/27 12:01:41;;;;;;;2.67;1.53;;;;;;;;;;5048642;28;20448;-66
2023/05/27 12:04:09;;;;;;;2.50;1.80;;;;;;;;;;5047608;28;20523;-63
2023/05/27 12:06:37;;;;;;;3.60;2.17;;;24.40;48.50;;;;;;5048886;28;20468;-63
2023/05/27 12:09:06;;;;;;;2.90;1.40;;;24.30;48.40;;;;;;5049060;28;20498;-57
2023/05/27 12:11:33;;;;;;;2.23;1.60;;;;;;;;;;5056057;28;20515;-65
2023/05/27 12:14:00;;;;;;;3.20;1.70;;;;;;;;;;5057327;28;20490;-62
2023/05/27 12:16:28;;;;;;;1.93;1.50;;;;;;;;;;5057411;28;20501;-63
2023/05/27 12:18:55;;;;;;;2.83;2.10;;;;;;;;;;5052487;28;20459;-64
2023/05/27 12:21:22;;;;;;;2.23;1.57;;;;;;;;;;5048896;28;20821;-61
2023/05/27 12:23:49;;;;;;;2.40;1.57;;;;;;;;;;5049035;28;20487;-59
2023/05/27 12:26:18;;;;;;;2.40;1.67;;;;;;;;;;5047022;28;20480;-64
2023/05/27 12:28:46;;;;;;;3.90;2.13;;;24.40;45.20;;;;;;5048852;28;20523;-65
2023/05/27 12:31:13;;;;;;;7.63;2.50;;;;;;;;;;5047493;28;20448;-63
2023/05/27 12:33:41;;;;;;;1.60;1.20;;;;;;;;;;5055148;28;20468;-59
2023/05/27 12:36:11;;;;;;;2.30;1.47;;;;;;;;;;5051026;28;20960;-66
2023/05/27 12:38:38;;;;;;;8.03;1.80;;;;;;;;;;5048281;28;20460;-64
2023/05/27 12:41:06;;;;;;;2.80;1.37;;;;;;;;;;5052044;28;20940;-61
2023/05/27 12:43:34;;;;;;;3.37;2.30;;;;;;;;;;5057319;28;20457;-61
2023/05/27 12:46:01;;;;;;;2.90;1.50;;;;;;;;;;5056951;28;20490;-64
2023/05/27 12:48:29;;;;;;;2.43;1.53;;;;;;;;;;5055577;28;20462;-63
2023/05/27 12:50:56;;;;;;;3.73;1.77;;;;;;;;;;5053604;28;20563;-65
2023/05/27 12:53:23;;;;;;;1.90;1.67;;;;;;;;;;5050070;28;20487;-64
2023/05/27 12:55:50;;;;;;;2.57;1.50;;;;;;;;;;5049907;28;20488;-64
2023/05/27 12:58:17;;;;;;;4.50;1.60;;;;;;;;;;5050246;28;20444;-63
2023/05/27 13:00:46;;;;;;;2.20;1.37;;;;;;;;;;5046743;28;20472;-62
2023/05/27 13:03:13;;;;;;;2.37;1.20;;;;;;;;;;5048818;28;20479;-63
2023/05/27 13:05:40;;;;;;;3.73;1.87;;;;;;;;;;5049614;28;20550;-64
2023/05/27 13:08:08;;;;;;;1.67;1.57;;;;;;;;;;5049960;28;20440;-63
2023/05/27 13:10:35;;;;;;;1.77;1.50;;;;;;;;;;5048321;28;20862;-64
2023/05/27 13:13:02;;;;;;;4.83;1.27;;;;;;;;;;5049000;28;20432;-64
2023/05/27 13:15:30;;;;;;;3.17;1.57;;;24.30;46.30;;;;;;5048810;28;20939;-64
2023/05/27 13:17:59;;;;;;;2.70;1.30;;;24.40;49.10;;;;;;5048933;28;20456;-63
2023/05/27 13:20:28;;;;;;;2.13;1.50;;;;;;;;;;5049691;28;20444;-64
2023/05/27 13:22:59;;;;;;;3.17;1.90;;;;;;;;;;5049958;28;20510;-62
2023/05/27 13:25:26;;;;;;;1.93;1.40;;;;;;;;;;5055956;28;20472;-60
2023/05/27 13:27:54;;;;;;;1.80;1.60;;;;;;;;;;5056647;28;20409;-61
2023/05/27 13:30:22;;;;;;;3.77;1.50;;;;;;;;;;5056171;28;20459;-61
2023/05/27 13:32:49;;;;;;;2.10;1.70;;;;;;;;;;5050213;28;20467;-64
2023/05/27 13:35:18;;;;;;;2.07;1.70;;;24.50;49.10;;;;;;5048105;28;20456;-65
2023/05/27 13:37:46;;;;;;;2.73;1.57;;;;;;;;;;5046285;28;20475;-62
2023/05/27 13:40:13;;;;;;;2.67;1.70;;;;;;;;;;5049035;28;20451;-64
2023/05/27 13:42:41;;;;;;;3.43;1.73;;;;;;;;;;5048312;28;20468;-64
2023/05/27 13:45:09;;;;;;;1.83;1.60;;;;;;;;;;5047759;28;20484;-66
2023/05/27 13:47:38;;;;;;;2.30;1.57;;;;;;;;;;5048116;28;20444;-64
2023/05/27 13:50:06;;;;;;;3.00;2.30;;;24.80;78.70;;;;;;5046409;28;20448;-65
2023/05/27 13:52:35;;;;;;;3.10;1.63;;;;;;;;;;5044879;28;20479;-64
2023/05/27 13:55:03;;;;;;;3.00;1.60;;;24.30;48.50;;;;;;5054505;28;20440;-60
2023/05/27 13:57:30;;;;;;;3.10;1.50;;;;;;;;;;5051776;28;20502;-60
2023/05/27 13:59:57;;;;;;;2.03;1.50;;;;;;;;;;5049238;28;20472;-65
2023/05/27 14:02:25;;;;;;;2.90;1.50;;;;;;;;;;5047794;28;20475;-64
2023/05/27 14:04:52;;;;;;;3.60;1.90;;;;;;;;;;5048924;28;20512;-64
2023/05/27 14:07:19;;;;;;;3.20;2.20;;;;;;;;;;5049196;28;20503;-64
2023/05/27 14:09:47;;;;;;;2.00;1.80;;;24.40;49.20;;;;;;5047973;28;20551;-65